Time;durP1;ratioP1;P1;durP2;ratioP2;P2;SDS_P1;SDS_P2;PMS_P1;PMS_P2;Temp;Humidity;BMP_temperature;BMP_pressure;BME280_temperature;BME280_humidity;BME280_pressure;Samples;Min_cycle;Max_cycle;Signal;HPM_P1;HPM_P2
2023/03/16 00:00:27;;;;;;;3.40;2.47;;;17.20;51.40;;;;;;5052621;28;20179;-59
2023/03/16 00:02:53;;;;;;;2.33;1.90;;;17.20;51.40;;;;;;5053021;28;20556;-59
2023/03/16 00:05:18;;;;;;;2.38;2.17;;;17.20;51.40;;;;;;5052556;28;20175;-59
2023/03/16 00:07:44;;;;;;;3.03;2.25;;;17.20;51.40;;;;;;5053082;28;20183;-58
2023/03/16 00:10:11;;;;;;;3.75;2.60;;;17.20;51.40;;;;;;5053025;28;20666;-58
2023/03/16 00:12:36;;;;;;;2.40;2.20;;;17.10;51.40;;;;;;5052527;28;20183;-58
2023/03/16 00:15:03;;;;;;;2.55;2.25;;;17.10;51.40;;;;;;5052844;28;20225;-58
2023/03/16 00:17:29;;;;;;;2.22;2.03;;;17.10;51.40;;;;;;5052992;28;20201;-58
2023/03/16 00:19:55;;;;;;;3.13;2.35;;;17.10;51.50;;;;;;5051763;28;20705;-59
2023/03/16 00:22:25;;;;;;;3.50;2.20;;;17.10;51.50;;;;;;5053107;28;20179;-58
2023/03/16 00:24:51;;;;;;;2.38;2.17;;;17.10;51.50;;;;;;5052718;28;20294;-58
2023/03/16 00:27:17;;;;;;;2.85;2.58;;;17.10;51.50;;;;;;5051954;28;20213;-57
2023/03/16 00:29:46;;;;;;;3.30;2.47;;;17.00;51.40;;;;;;5052137;28;20179;-58
2023/03/16 00:32:23;;;;;;;2.63;2.08;;;17.00;51.50;;;;;;5052767;28;20183;-58
2023/03/16 00:34:48;;;;;;;2.30;2.10;;;17.00;51.40;;;;;;5051729;28;20652;-59
2023/03/16 00:37:16;;;;;;;2.33;2.13;;;17.00;51.50;;;;;;5052684;28;20171;-58
2023/03/16 00:39:42;;;;;;;2.20;2.00;;;17.00;51.50;;;;;;5052587;28;20630;-58
2023/03/16 00:42:08;;;;;;;2.05;1.95;;;17.00;51.50;;;;;;5051984;28;20194;-59
2023/03/16 00:44:35;;;;;;;2.80;2.33;;;17.00;51.50;;;;;;5052489;28;20242;-58
2023/03/16 00:47:01;;;;;;;2.40;2.13;;;17.00;51.50;;;;;;5052409;28;20179;-58
2023/03/16 00:49:26;;;;;;;2.75;2.35;;;17.00;51.50;;;;;;5051888;28;20181;-58
2023/03/16 00:51:52;;;;;;;3.05;2.42;;;16.90;51.40;;;;;;5052179;28;20254;-57
2023/03/16 00:54:17;;;;;;;2.97;2.28;;;16.90;51.40;;;;;;5052543;28;20256;-58
2023/03/16 00:56:43;;;;;;;3.05;2.42;;;16.90;51.40;;;;;;5051335;28;20641;-58
2023/03/16 00:59:08;;;;;;;2.25;2.05;;;16.90;51.40;;;;;;5052425;28;20175;-58
2023/03/16 01:01:34;;;;;;;2.95;2.42;;;16.90;51.40;;;;;;5051534;28;20268;-58
2023/03/16 01:04:00;;;;;;;2.42;2.20;;;16.90;51.40;;;;;;5052033;28;20290;-59
2023/03/16 01:06:26;;;;;;;2.80;2.60;;;16.90;51.40;;;;;;5052411;28;20179;-59
2023/03/16 01:08:51;;;;;;;2.42;2.22;;;16.90;51.40;;;;;;5051245;28;20979;-58
2023/03/16 01:11:19;;;;;;;3.00;2.15;;;16.90;51.40;;;;;;5052152;28;20171;-56
2023/03/16 01:13:45;;;;;;;2.35;2.15;;;16.80;51.40;;;;;;5051948;28;20186;-58
2023/03/16 01:16:11;;;;;;;2.38;2.17;;;16.90;51.40;;;;;;5051486;28;20175;-58
2023/03/16 01:18:37;;;;;;;3.20;2.60;;;16.80;51.30;;;;;;5052172;28;20227;-58
2023/03/16 01:21:04;;;;;;;1.98;1.77;;;16.80;51.40;;;;;;5052012;28;20595;-58
2023/03/16 01:23:30;;;;;;;2.72;1.90;;;16.80;51.40;;;;;;5051350;28;20268;-58
2023/03/16 01:25:55;;;;;;;2.15;1.92;;;16.80;51.40;;;;;;5050558;28;20599;-58
2023/03/16 01:28:25;;;;;;;2.30;2.05;;;16.80;51.40;;;;;;5052313;28;20262;-57
2023/03/16 01:30:56;;;;;;;2.63;2.25;;;16.80;51.40;;;;;;5051480;28;20175;-58
2023/03/16 01:33:22;;;;;;;2.38;2.17;;;16.80;51.30;;;;;;5052112;28;20177;-58
2023/03/16 01:35:58;;;;;;;3.55;2.10;;;16.80;51.40;;;;;;5051850;28;20244;-58
2023/03/16 01:38:23;;;;;;;2.78;2.17;;;16.70;51.20;;;;;;5051299;28;20185;-58
2023/03/16 01:40:50;;;;;;;2.20;1.95;;;16.70;51.20;;;;;;5051894;28;20187;-59
2023/03/16 01:43:16;;;;;;;3.42;2.28;;;16.70;51.30;;;;;;5051920;28;20756;-58
2023/03/16 01:46:01;;;;;;;2.40;2.20;;;16.70;51.30;;;;;;5050895;28;20258;-58
2023/03/16 01:48:27;;;;;;;2.22;1.92;;;16.70;51.30;;;;;;5051941;28;20199;-58
2023/03/16 01:50:52;;;;;;;2.00;1.80;;;16.70;51.20;;;;;;5049614;28;20568;-58
2023/03/16 01:53:19;;;;;;;2.78;2.35;;;16.70;51.40;;;;;;5052083;28;20179;-58
2023/03/16 01:55:44;;;;;;;2.53;2.08;;;16.70;51.10;;;;;;5052744;28;20228;-58
2023/03/16 01:58:10;;;;;;;2.03;1.83;;;16.70;51.20;;;;;;5053998;28;20298;-58
2023/03/16 02:00:35;;;;;;;2.65;2.20;;;16.60;51.10;;;;;;5054577;28;20269;-58
2023/03/16 02:03:12;;;;;;;1.77;1.58;;;16.70;51.20;;;;;;5055267;28;20199;-58
2023/03/16 02:05:58;;;;;;;2.05;1.83;;;16.60;51.20;;;;;;5053943;28;20186;-58
2023/03/16 02:08:24;;;;;;;2.63;2.17;;;16.60;51.10;;;;;;5054351;28;20179;-58
2023/03/16 02:10:53;;;;;;;2.40;2.15;;;16.60;51.10;;;;;;5055506;28;20174;-58
2023/03/16 02:13:20;;;;;;;2.50;2.00;;;16.60;51.20;;;;;;5053774;28;20170;-58
2023/03/16 02:15:45;;;;;;;2.28;2.08;;;16.60;51.30;;;;;;5054123;28;20175;-58
2023/03/16 02:18:11;;;;;;;2.13;1.92;;;16.60;51.30;;;;;;5055324;28;20559;-58
2023/03/16 02:20:47;;;;;;;2.40;2.00;;;16.60;51.30;;;;;;5053445;28;20222;-58
2023/03/16 02:23:17;;;;;;;2.30;1.88;;;16.60;51.30;;;;;;5054340;28;20202;-58
2023/03/16 02:26:07;;;;;;;2.40;2.20;;;16.60;51.30;;;;;;5053923;28;20183;-58
2023/03/16 02:28:47;;;;;;;2.08;1.88;;;16.50;51.30;;;;;;5054412;28;20232;-58
2023/03/16 02:31:12;;;;;;;3.53;2.00;;;16.60;51.30;;;;;;5055471;28;20175;-58
2023/03/16 02:33:38;;;;;;;1.70;1.55;;;16.50;51.30;;;;;;5053641;28;20167;-58
2023/03/16 02:36:03;;;;;;;1.85;1.73;;;16.50;51.30;;;;;;5053855;28;20625;-59
2023/03/16 02:38:30;;;;;;;2.63;1.90;;;16.50;51.30;;;;;;5055338;28;20645;-57
2023/03/16 02:41:16;;;;;;;2.08;1.88;;;16.50;51.30;;;;;;5054375;28;20175;-58
2023/03/16 02:43:47;;;;;;;1.70;1.60;;;16.50;51.30;;;;;;5054708;28;20214;-59
2023/03/16 02:46:12;;;;;;;2.03;1.83;;;16.50;51.30;;;;;;5053873;28;20183;-59
2023/03/16 02:48:54;;;;;;;1.88;1.73;;;16.50;51.30;;;;;;5053123;28;20513;-58
2023/03/16 02:51:19;;;;;;;2.05;1.85;;;16.50;51.30;;;;;;5054739;28;20178;-58
2023/03/16 02:53:45;;;;;;;2.47;1.75;;;16.50;51.30;;;;;;5054485;28;20171;-57
2023/03/16 02:56:10;;;;;;;2.20;2.00;;;16.50;51.30;;;;;;5054007;28;20288;-58
2023/03/16 02:58:36;;;;;;;1.80;1.65;;;16.50;51.30;;;;;;5055002;28;20694;-59
2023/03/16 03:01:02;;;;;;;2.25;1.88;;;16.50;51.30;;;;;;5054646;28;20179;-59
2023/03/16 03:03:28;;;;;;;1.67;1.58;;;16.40;51.20;;;;;;5054433;28;20191;-58
2023/03/16 03:05:53;;;;;;;3.42;1.90;;;16.40;51.30;;;;;;5054390;28;20186;-59
2023/03/16 03:08:21;;;;;;;1.55;1.45;;;16.40;51.30;;;;;;5054094;28;20204;-58
2023/03/16 03:10:46;;;;;;;2.20;1.95;;;16.40;51.30;;;;;;5054133;28;20634;-58
2023/03/16 03:13:12;;;;;;;1.90;1.60;;;16.40;51.30;;;;;;5054610;28;20175;-58
2023/03/16 03:15:37;;;;;;;1.50;1.40;;;16.40;51.30;;;;;;5053724;28;20171;-57
2023/03/16 03:18:03;;;;;;;1.73;1.52;;;16.40;51.30;;;;;;5054127;28;20226;-57
2023/03/16 03:20:29;;;;;;;1.55;1.45;;;16.40;51.30;;;;;;5054403;28;20182;-58
2023/03/16 03:22:54;;;;;;;2.22;2.03;;;16.40;51.30;;;;;;5053540;28;20206;-58
2023/03/16 03:25:20;;;;;;;1.80;1.70;;;16.40;51.30;;;;;;5054342;28;20713;-58
2023/03/16 03:27:46;;;;;;;1.70;1.60;;;16.40;51.30;;;;;;5054178;28;20194;-58
2023/03/16 03:30:14;;;;;;;2.00;1.80;;;16.30;51.30;;;;;;5053719;28;20268;-58
2023/03/16 03:32:40;;;;;;;1.92;1.77;;;16.40;51.30;;;;;;5054322;28;20175;-59
2023/03/16 03:35:06;;;;;;;1.92;1.73;;;16.60;51.40;;;;;;5054170;28;20269;-58
2023/03/16 03:37:31;;;;;;;1.60;1.50;;;16.30;51.30;;;;;;5053675;28;20202;-58
2023/03/16 03:39:57;;;;;;;2.03;1.83;;;16.30;51.30;;;;;;5053789;28;20210;-58
2023/03/16 03:42:22;;;;;;;2.25;1.60;;;16.40;51.30;;;;;;5053973;28;20171;-59
2023/03/16 03:44:50;;;;;;;2.13;1.95;;;16.30;51.30;;;;;;5053070;28;20214;-59
2023/03/16 03:47:16;;;;;;;1.95;1.75;;;16.30;51.30;;;;;;5053976;28;20175;-58
2023/03/16 03:49:41;;;;;;;1.58;1.48;;;16.30;51.30;;;;;;5053755;28;20706;-58
2023/03/16 03:52:07;;;;;;;2.33;2.10;;;16.30;51.30;;;;;;5053449;28;20175;-58
2023/03/16 03:54:32;;;;;;;2.00;1.73;;;16.30;51.30;;;;;;5053968;28;20644;-58
2023/03/16 03:56:58;;;;;;;1.58;1.45;;;16.30;51.30;;;;;;5053641;28;20543;-58
2023/03/16 03:59:23;;;;;;;1.67;1.58;;;16.30;51.40;;;;;;5053163;28;20221;-59
2023/03/16 04:01:49;;;;;;;1.30;1.20;;;16.20;51.30;;;;;;5053463;28;20217;-59
2023/03/16 04:04:15;;;;;;;1.70;1.60;;;16.30;51.30;;;;;;5053336;28;20348;-58
2023/03/16 04:06:40;;;;;;;2.75;1.70;;;16.20;51.30;;;;;;5052525;28;20190;-58
2023/03/16 04:09:06;;;;;;;1.45;1.35;;;16.20;51.30;;;;;;5053173;28;20186;-57
2023/03/16 04:11:32;;;;;;;1.88;1.60;;;16.20;51.30;;;;;;5052667;28;20175;-58
2023/03/16 04:13:57;;;;;;;1.58;1.48;;;16.20;51.30;;;;;;5052895;28;20285;-58
2023/03/16 04:16:25;;;;;;;1.67;1.52;;;16.30;51.40;;;;;;5053002;28;20652;-58
2023/03/16 04:18:53;;;;;;;1.95;1.83;;;16.20;51.30;;;;;;5051299;28;20241;-58
2023/03/16 04:21:18;;;;;;;1.58;1.48;;;16.20;51.30;;;;;;5053260;28;20191;-58
2023/03/16 04:23:44;;;;;;;1.95;1.85;;;16.20;51.30;;;;;;5052930;28;20242;-55
2023/03/16 04:26:09;;;;;;;2.17;1.98;;;16.20;51.40;;;;;;5052478;28;20191;-59
2023/03/16 04:28:35;;;;;;;1.65;1.55;;;16.20;51.30;;;;;;5053290;28;20707;-59
2023/03/16 04:31:02;;;;;;;1.70;1.60;;;16.20;51.30;;;;;;5052628;28;20362;-59
2023/03/16 04:33:27;;;;;;;1.52;1.42;;;16.20;51.30;;;;;;5052125;28;20582;-59
2023/03/16 04:35:53;;;;;;;1.83;1.50;;;16.20;51.30;;;;;;5052453;28;20660;-57
2023/03/16 04:38:18;;;;;;;1.70;1.60;;;16.20;51.30;;;;;;5052681;28;20191;-59
2023/03/16 04:40:44;;;;;;;2.03;1.58;;;16.20;51.30;;;;;;5051861;28;20174;-59
2023/03/16 04:43:09;;;;;;;1.67;1.50;;;16.20;51.30;;;;;;5052650;28;20307;-60
2023/03/16 04:45:35;;;;;;;1.92;1.73;;;16.10;51.30;;;;;;5052601;28;20179;-60
2023/03/16 04:48:00;;;;;;;1.70;1.60;;;16.10;51.30;;;;;;5051578;28;20603;-59
2023/03/16 04:50:26;;;;;;;1.70;1.50;;;16.10;51.30;;;;;;5052762;28;20586;-59
2023/03/16 04:52:51;;;;;;;1.80;1.70;;;16.10;51.30;;;;;;5052521;28;20646;-59
2023/03/16 04:55:17;;;;;;;1.73;1.63;;;16.10;51.30;;;;;;5051878;28;20194;-58
2023/03/16 04:57:42;;;;;;;1.48;1.38;;;16.10;51.40;;;;;;5052207;28;20266;-59
2023/03/16 05:00:10;;;;;;;1.50;1.40;;;16.10;51.30;;;;;;5052501;28;20171;-59
2023/03/16 05:02:36;;;;;;;1.50;1.40;;;16.10;51.30;;;;;;5051507;28;20511;-59
2023/03/16 05:05:03;;;;;;;1.63;1.52;;;16.10;51.40;;;;;;5051982;28;20738;-60
2023/03/16 05:07:29;;;;;;;1.63;1.52;;;16.10;51.40;;;;;;5052409;28;20202;-59
2023/03/16 05:09:54;;;;;;;2.22;1.67;;;16.00;51.30;;;;;;5051416;28;20185;-59
2023/03/16 05:12:20;;;;;;;1.52;1.42;;;16.00;51.20;;;;;;5052342;28;20236;-58
2023/03/16 05:14:45;;;;;;;1.58;1.48;;;16.00;51.30;;;;;;5051335;28;20171;-59
2023/03/16 05:17:13;;;;;;;2.38;1.95;;;16.00;51.30;;;;;;5052287;28;20174;-59
2023/03/16 05:19:39;;;;;;;1.90;1.50;;;16.00;51.30;;;;;;5052204;28;20303;-59
2023/03/16 05:22:05;;;;;;;2.28;1.42;;;16.00;51.30;;;;;;5051234;28;20285;-59
2023/03/16 05:24:31;;;;;;;1.63;1.27;;;16.00;51.30;;;;;;5052223;28;20245;-58
2023/03/16 05:26:56;;;;;;;1.40;1.30;;;16.00;51.30;;;;;;5051950;28;20171;-58
2023/03/16 05:29:22;;;;;;;1.63;1.50;;;16.00;51.30;;;;;;5051417;28;20182;-58
2023/03/16 05:31:47;;;;;;;1.73;1.45;;;16.00;51.40;;;;;;5054584;28;20182;-59
2023/03/16 05:34:13;;;;;;;1.67;1.58;;;16.00;51.40;;;;;;5056370;28;20533;-59
2023/03/16 05:36:38;;;;;;;1.50;1.38;;;16.00;51.30;;;;;;5055793;28;20531;-59
2023/03/16 05:39:04;;;;;;;1.40;1.30;;;15.90;51.30;;;;;;5055805;28;20205;-59
2023/03/16 05:41:30;;;;;;;1.58;1.45;;;15.90;51.30;;;;;;5056192;28;20191;-59
2023/03/16 05:43:55;;;;;;;1.63;1.50;;;15.90;51.30;;;;;;5055041;28;20238;-59
2023/03/16 05:46:20;;;;;;;1.63;1.52;;;15.90;51.30;;;;;;5055983;28;20175;-58
2023/03/16 05:48:46;;;;;;;1.50;1.40;;;15.90;51.30;;;;;;5055882;28;20182;-59
2023/03/16 05:51:13;;;;;;;1.40;1.30;;;15.90;51.40;;;;;;5055468;28;20187;-58
2023/03/16 05:53:38;;;;;;;1.48;1.38;;;15.90;51.10;;;;;;5055863;28;20756;-58
2023/03/16 05:56:04;;;;;;;1.55;1.40;;;15.90;51.30;;;;;;5055579;28;20262;-59
2023/03/16 05:58:32;;;;;;;1.63;1.52;;;15.90;51.30;;;;;;5055122;28;20270;-59
2023/03/16 06:01:00;;;;;;;1.58;1.48;;;15.90;51.40;;;;;;5055326;28;20179;-59
2023/03/16 06:03:26;;;;;;;1.48;1.38;;;15.90;51.30;;;;;;5055565;28;20222;-59
2023/03/16 06:05:52;;;;;;;1.50;1.40;;;15.90;51.30;;;;;;5054903;28;20183;-59
2023/03/16 06:08:17;;;;;;;1.50;1.40;;;15.90;51.40;;;;;;5055661;28;20179;-58
2023/03/16 06:10:45;;;;;;;1.40;1.30;;;15.90;51.30;;;;;;5055415;28;20538;-59
2023/03/16 06:13:10;;;;;;;1.60;1.50;;;15.90;51.20;;;;;;5053412;28;20317;-59
2023/03/16 06:15:36;;;;;;;1.60;1.50;;;15.90;51.30;;;;;;5055367;28;20631;-58
2023/03/16 06:18:01;;;;;;;1.23;1.23;;;15.80;51.30;;;;;;5054131;28;20309;-59
2023/03/16 06:20:27;;;;;;;1.63;1.52;;;15.80;51.20;;;;;;5055611;28;20267;-59
2023/03/16 06:22:52;;;;;;;1.50;1.40;;;15.80;51.30;;;;;;5055081;28;20262;-59
2023/03/16 06:25:18;;;;;;;1.42;1.33;;;15.80;51.30;;;;;;5054575;28;20179;-59
2023/03/16 06:27:43;;;;;;;1.40;1.30;;;15.80;51.30;;;;;;5054906;28;20258;-59
2023/03/16 06:30:10;;;;;;;1.48;1.38;;;15.80;51.30;;;;;;5055204;28;20224;-59
2023/03/16 06:32:36;;;;;;;1.60;1.50;;;15.80;51.30;;;;;;5054674;28;20175;-60
2023/03/16 06:35:02;;;;;;;1.67;1.58;;;15.80;51.30;;;;;;5055086;28;20178;-60
2023/03/16 06:37:28;;;;;;;1.60;1.33;;;15.80;51.10;;;;;;5053964;28;20175;-59
2023/03/16 06:39:54;;;;;;;1.50;1.40;;;15.80;51.30;;;;;;5054132;28;20171;-59
2023/03/16 06:42:19;;;;;;;1.80;1.38;;;15.80;51.30;;;;;;5054369;28;20205;-60
2023/03/16 06:44:45;;;;;;;1.42;1.33;;;15.80;51.30;;;;;;5054396;28;20207;-60
2023/03/16 06:47:11;;;;;;;1.27;1.10;;;15.80;51.30;;;;;;5054363;28;20179;-59
2023/03/16 06:49:36;;;;;;;1.40;1.30;;;15.70;51.30;;;;;;5055061;28;20190;-59
2023/03/16 06:52:02;;;;;;;1.40;1.30;;;15.80;51.30;;;;;;5054713;28;20171;-59
2023/03/16 06:54:28;;;;;;;1.70;1.40;;;15.70;51.20;;;;;;5054373;28;20172;-59
2023/03/16 06:56:53;;;;;;;2.25;1.65;;;15.80;51.30;;;;;;5054438;28;20185;-59
2023/03/16 06:59:19;;;;;;;2.30;1.73;;;15.70;51.20;;;;;;5054685;28;20175;-59
2023/03/16 07:01:45;;;;;;;1.10;1.10;;;15.80;51.30;;;;;;5053867;28;20179;-59
2023/03/16 07:04:11;;;;;;;1.60;1.50;;;15.80;51.20;;;;;;5054520;28;20310;-59
2023/03/16 07:06:37;;;;;;;1.80;1.70;;;15.80;51.10;;;;;;5054489;28;20610;-60
2023/03/16 07:09:03;;;;;;;1.42;1.30;;;15.90;51.10;;;;;;5053561;28;20270;-59
2023/03/16 07:11:29;;;;;;;1.60;1.50;;;16.00;50.90;;;;;;5054451;28;20163;-59
2023/03/16 07:13:55;;;;;;;1.63;1.42;;;16.10;50.70;;;;;;5054070;28;20554;-59
2023/03/16 07:16:20;;;;;;;1.50;1.40;;;16.20;50.70;;;;;;5053836;28;20182;-60
2023/03/16 07:18:46;;;;;;;1.55;1.38;;;16.30;50.50;;;;;;5053794;28;20280;-59
2023/03/16 07:21:11;;;;;;;1.35;1.25;;;16.40;50.30;;;;;;5054408;28;20265;-59
2023/03/16 07:23:37;;;;;;;1.58;1.33;;;16.50;50.90;;;;;;5053415;28;20739;-59
2023/03/16 07:26:03;;;;;;;1.40;1.30;;;16.40;50.10;;;;;;5053939;28;20237;-60
2023/03/16 07:28:28;;;;;;;1.15;1.15;;;16.40;50.10;;;;;;5053379;28;20186;-59
2023/03/16 07:30:54;;;;;;;1.42;1.27;;;16.50;50.20;;;;;;5054010;28;20175;-59
2023/03/16 07:33:19;;;;;;;1.15;1.15;;;16.60;50.00;;;;;;5054149;28;20167;-59
2023/03/16 07:35:45;;;;;;;1.20;1.10;;;16.70;49.90;;;;;;5052904;28;20171;-59
2023/03/16 07:38:11;;;;;;;0.93;0.93;;;16.80;49.80;;;;;;5053894;28;20225;-59
2023/03/16 07:40:38;;;;;;;1.42;1.20;;;16.80;49.70;;;;;;5053899;28;20179;-59
2023/03/16 07:43:04;;;;;;;1.30;1.20;;;16.90;49.70;;;;;;5052728;28;20262;-59
2023/03/16 07:45:30;;;;;;;1.95;1.13;;;17.00;49.60;;;;;;5053928;28;20324;-59
2023/03/16 07:47:55;;;;;;;1.15;1.05;;;17.00;49.50;;;;;;5053496;28;20182;-59
2023/03/16 07:50:21;;;;;;;1.30;1.20;;;17.00;49.40;;;;;;5052997;28;20552;-67
2023/03/16 07:52:46;;;;;;;1.48;1.30;;;17.00;49.50;;;;;;5052677;28;20163;-69
2023/03/16 07:55:12;;;;;;;1.30;1.20;;;17.10;49.50;;;;;;5052984;28;20171;-69
2023/03/16 07:57:38;;;;;;;1.05;0.90;;;17.10;49.60;;;;;;5052827;28;20175;-65
2023/03/16 08:00:06;;;;;;;1.38;1.10;;;17.20;50.00;;;;;;5053530;28;20202;-65
2023/03/16 08:02:31;;;;;;;2.45;1.17;;;17.20;50.10;;;;;;5053402;28;20641;-65
2023/03/16 08:04:57;;;;;;;1.85;1.23;;;17.30;50.50;;;;;;5052522;28;20217;-64
2023/03/16 08:07:22;;;;;;;1.83;1.17;;;17.30;50.60;;;;;;5053630;28;20175;-67
2023/03/16 08:09:48;;;;;;;1.75;1.27;;;17.30;50.70;;;;;;5053128;28;20564;-64
2023/03/16 08:12:13;;;;;;;1.25;1.15;;;17.30;50.80;;;;;;5052636;28;20638;-65
2023/03/16 08:14:39;;;;;;;3.17;1.35;;;17.20;50.90;;;;;;5053246;28;20645;-64
2023/03/16 08:17:06;;;;;;;1.65;1.50;;;17.20;51.00;;;;;;5052623;28;20167;-63
2023/03/16 08:19:32;;;;;;;2.03;1.52;;;17.20;51.20;;;;;;5051718;28;20222;-65
2023/03/16 08:22:00;;;;;;;2.85;1.50;;;17.10;51.30;;;;;;5052421;28;20254;-63
2023/03/16 08:24:25;;;;;;;2.72;1.33;;;17.00;51.50;;;;;;5052597;28;20278;-64
2023/03/16 08:26:51;;;;;;;1.50;1.40;;;17.00;51.60;;;;;;5051505;28;20705;-67
2023/03/16 08:29:17;;;;;;;1.85;1.60;;;16.90;51.80;;;;;;5052823;28;20182;-66
2023/03/16 08:31:43;;;;;;;2.42;1.20;;;16.80;51.80;;;;;;5051663;28;20179;-66
2023/03/16 08:34:09;;;;;;;1.40;1.30;;;16.80;52.00;;;;;;5052609;28;20193;-67
2023/03/16 08:36:35;;;;;;;2.38;1.10;;;16.70;52.20;;;;;;5052865;28;20179;-66
2023/03/16 08:39:01;;;;;;;1.58;1.17;;;16.70;52.20;;;;;;5051854;28;20179;-65
2023/03/16 08:41:29;;;;;;;3.05;1.48;;;16.70;52.30;;;;;;5053151;28;20241;-65
2023/03/16 08:43:56;;;;;;;1.83;1.65;;;16.60;52.40;;;;;;5052767;28;20211;-65
2023/03/16 08:46:23;;;;;;;2.33;1.83;;;16.60;52.40;;;;;;5052325;28;20175;-64
2023/03/16 08:48:48;;;;;;;1.92;1.35;;;16.60;52.50;;;;;;5052694;28;20270;-64
2023/03/16 08:51:14;;;;;;;1.52;1.40;;;16.60;53.30;;;;;;5052874;28;20195;-64
2023/03/16 08:53:39;;;;;;;5.65;1.75;;;16.60;52.80;;;;;;5052019;28;20193;-65
2023/03/16 08:56:07;;;;;;;1.35;1.20;;;16.50;52.70;;;;;;5052644;28;20245;-65
2023/03/16 08:58:33;;;;;;;1.92;1.50;;;16.50;52.80;;;;;;5052650;28;20176;-66
2023/03/16 09:00:59;;;;;;;3.72;1.75;;;16.50;52.90;;;;;;5051876;28;20191;-65
2023/03/16 09:03:25;;;;;;;4.15;1.50;;;16.50;52.90;;;;;;5052483;28;20227;-66
2023/03/16 09:05:51;;;;;;;3.25;1.50;;;16.50;52.80;;;;;;5051963;28;20205;-65
2023/03/16 09:08:17;;;;;;;2.55;1.40;;;16.40;52.80;;;;;;5051728;28;20190;-65
2023/03/16 09:10:43;;;;;;;1.58;1.48;;;16.40;53.30;;;;;;5052367;28;20175;-64
2023/03/16 09:13:09;;;;;;;1.70;1.58;;;16.40;52.80;;;;;;5052561;28;20180;-64
2023/03/16 09:15:35;;;;;;;2.08;1.77;;;16.40;52.70;;;;;;5051590;28;20178;-65
2023/03/16 09:18:02;;;;;;;2.58;1.70;;;16.30;52.60;;;;;;5051793;28;20222;-64
2023/03/16 09:20:28;;;;;;;1.80;1.65;;;16.40;52.60;;;;;;5052331;28;20182;-65
2023/03/16 09:22:54;;;;;;;2.47;1.63;;;16.30;52.50;;;;;;5051105;28;20179;-65
2023/03/16 09:25:20;;;;;;;1.63;1.52;;;16.30;52.70;;;;;;5052606;28;20220;-65
2023/03/16 09:27:45;;;;;;;4.03;1.70;;;16.30;52.60;;;;;;5052282;28;20171;-65
2023/03/16 09:30:12;;;;;;;3.78;1.50;;;16.30;52.60;;;;;;5051771;28;20298;-66
2023/03/16 09:32:37;;;;;;;1.70;1.60;;;16.20;52.50;;;;;;5052344;28;20199;-66
2023/03/16 09:35:05;;;;;;;1.70;1.60;;;16.20;52.60;;;;;;5051263;28;20535;-66
2023/03/16 09:37:31;;;;;;;1.73;1.60;;;16.30;52.60;;;;;;5052213;28;20562;-66
2023/03/16 09:39:57;;;;;;;3.17;1.63;;;16.20;52.60;;;;;;5052141;28;20178;-65
2023/03/16 09:42:37;;;;;;;1.70;1.55;;;16.20;52.60;;;;;;5051630;28;20183;-65
2023/03/16 09:45:54;;;;;;;2.13;1.85;;;16.20;52.50;;;;;;5050813;28;20303;-64
2023/03/16 09:48:19;;;;;;;1.92;1.65;;;16.20;52.40;;;;;;5043003;28;20614;-64
2023/03/16 09:50:45;;;;;;;1.90;1.40;;;16.20;52.30;;;;;;5050132;28;20175;-63
2023/03/16 09:53:27;;;;;;;3.22;1.63;;;16.20;52.20;;;;;;5050920;28;20637;-65
2023/03/16 09:55:56;;;;;;;1.58;1.48;;;16.20;52.20;;;;;;5050620;28;20175;-65
2023/03/16 09:58:22;;;;;;;1.88;1.50;;;16.20;52.20;;;;;;5050169;28;20179;-66
2023/03/16 10:00:51;;;;;;;2.08;1.70;;;16.20;52.20;;;;;;5050361;28;20471;-65
2023/03/16 10:03:28;;;;;;;2.85;1.70;;;16.10;52.20;;;;;;5051346;28;20268;-65
2023/03/16 10:06:02;;;;;;;2.83;1.73;;;16.10;52.00;;;;;;5051832;28;20218;-65
2023/03/16 10:08:44;;;;;;;2.10;1.85;;;16.10;52.00;;;;;;5050819;28;20171;-65
2023/03/16 10:11:28;;;;;;;2.45;1.73;;;16.10;51.90;;;;;;5051239;28;20529;-64
2023/03/16 10:14:31;;;;;;;2.95;1.75;;;16.10;52.00;;;;;;5051822;28;20262;-65
2023/03/16 10:17:09;;;;;;;3.75;1.88;;;16.10;52.10;;;;;;5052658;28;20579;-64
2023/03/16 10:19:37;;;;;;;1.75;1.60;;;16.10;52.80;;;;;;5054162;28;20306;-64
2023/03/16 10:22:30;;;;;;;1.98;1.70;;;16.00;52.00;;;;;;5054228;28;20179;-63
2023/03/16 10:25:18;;;;;;;2.13;1.50;;;16.00;51.90;;;;;;5054072;28;20265;-64
2023/03/16 10:27:44;;;;;;;1.70;1.60;;;16.00;51.80;;;;;;5053953;28;20654;-65
2023/03/16 10:30:18;;;;;;;2.22;1.80;;;16.00;51.70;;;;;;5055512;28;20183;-65
2023/03/16 10:32:44;;;;;;;2.08;1.80;;;16.00;51.70;;;;;;5054382;28;20179;-66
2023/03/16 10:35:32;;;;;;;1.95;1.75;;;16.00;51.90;;;;;;5055418;28;20186;-66
2023/03/16 10:37:58;;;;;;;1.77;1.67;;;16.00;51.90;;;;;;5053830;28;20194;-65
2023/03/16 10:40:25;;;;;;;3.10;1.63;;;16.10;51.90;;;;;;5054665;28;20179;-65
2023/03/16 10:42:50;;;;;;;1.40;1.30;;;16.10;51.70;;;;;;5053868;28;20175;-65
2023/03/16 10:45:34;;;;;;;1.55;1.45;;;16.20;51.80;;;;;;5054583;28;20211;-64
2023/03/16 10:48:14;;;;;;;1.58;1.48;;;16.20;51.70;;;;;;5053594;28;20171;-64
2023/03/16 10:50:40;;;;;;;1.58;1.45;;;16.20;51.70;;;;;;5054950;28;20190;-64
2023/03/16 10:53:16;;;;;;;1.85;1.38;;;16.20;51.70;;;;;;5052629;28;20646;-64
2023/03/16 10:55:42;;;;;;;1.50;1.40;;;16.30;51.70;;;;;;5054820;28;20182;-65
2023/03/16 10:58:08;;;;;;;1.50;1.40;;;16.20;51.70;;;;;;5054800;28;20171;-66
2023/03/16 11:00:35;;;;;;;1.85;1.60;;;16.30;51.70;;;;;;5052940;28;20171;-65
2023/03/16 11:03:01;;;;;;;1.55;1.35;;;16.20;51.70;;;;;;5054109;28;20278;-65
2023/03/16 11:05:31;;;;;;;2.17;1.60;;;16.20;51.60;;;;;;5053825;28;20179;-66
2023/03/16 11:07:59;;;;;;;2.25;1.50;;;16.30;51.60;;;;;;5053807;28;20180;-65
2023/03/16 11:10:34;;;;;;;1.50;1.40;;;16.30;51.60;;;;;;5054605;28;20172;-65
2023/03/16 11:13:02;;;;;;;1.60;1.50;;;16.40;51.50;;;;;;5054341;28;20261;-64
2023/03/16 11:15:32;;;;;;;1.77;1.48;;;16.50;51.40;;;;;;5053786;28;20183;-65
2023/03/16 11:17:58;;;;;;;1.77;1.20;;;16.40;51.40;;;;;;5053093;28;20251;-64
2023/03/16 11:20:27;;;;;;;2.05;1.30;;;16.50;51.50;;;;;;5054258;28;20668;-65
2023/03/16 11:22:53;;;;;;;1.65;1.30;;;16.50;51.50;;;;;;5052944;28;20233;-64
2023/03/16 11:25:42;;;;;;;2.08;1.40;;;16.50;51.40;;;;;;5054306;28;20214;-65
2023/03/16 11:28:11;;;;;;;1.35;1.23;;;16.50;51.40;;;;;;5052361;28;20224;-65
2023/03/16 11:30:40;;;;;;;1.33;1.20;;;16.50;51.50;;;;;;5053104;28;20210;-66
2023/03/16 11:33:08;;;;;;;1.63;1.20;;;16.50;51.40;;;;;;5052880;28;20212;-66
2023/03/16 11:35:56;;;;;;;2.33;1.55;;;16.50;51.40;;;;;;5053480;28;20203;-66
2023/03/16 11:38:42;;;;;;;1.13;1.00;;;16.50;51.40;;;;;;5053009;28;20548;-66
2023/03/16 11:41:10;;;;;;;2.50;1.67;;;16.50;51.40;;;;;;5054694;28;20178;-64
2023/03/16 11:43:54;;;;;;;2.13;1.20;;;16.50;51.50;;;;;;5052176;28;20203;-65
2023/03/16 11:46:35;;;;;;;1.52;1.33;;;16.50;51.50;;;;;;5052774;28;20186;-65
2023/03/16 11:49:22;;;;;;;1.67;1.10;;;16.40;51.40;;;;;;5052766;28;20626;-64
2023/03/16 11:52:00;;;;;;;2.38;1.20;;;16.40;51.40;;;;;;5053529;28;20214;-65
2023/03/16 11:54:51;;;;;;;3.00;1.77;;;16.40;51.40;;;;;;5052734;28;20174;-65
2023/03/16 11:57:38;;;;;;;1.35;1.23;;;16.40;51.30;;;;;;5051994;28;20171;-66
2023/03/16 12:00:21;;;;;;;1.55;1.33;;;16.40;51.20;;;;;;5053398;28;20703;-66
2023/03/16 12:03:14;;;;;;;1.50;1.15;;;16.40;51.80;;;;;;5051437;28;20236;-66
2023/03/16 12:05:55;;;;;;;3.00;1.65;;;16.40;51.80;;;;;;5053297;28;20212;-65
2023/03/16 12:08:39;;;;;;;1.35;1.25;;;16.30;51.10;;;;;;5052382;28;20183;-65
2023/03/16 12:11:06;;;;;;;1.90;1.20;;;16.40;51.10;;;;;;5051268;28;20186;-65
2023/03/16 12:13:44;;;;;;;2.75;1.45;;;16.40;51.10;;;;;;5052084;28;20179;-65
2023/03/16 12:16:28;;;;;;;1.98;1.35;;;16.40;51.10;;;;;;5053489;28;20190;-64
2023/03/16 12:19:06;;;;;;;2.63;1.60;;;16.30;51.00;;;;;;5050888;28;20233;-64
2023/03/16 12:21:39;;;;;;;3.60;1.55;;;16.40;51.10;;;;;;5052168;28;20186;-64
2023/03/16 12:24:06;;;;;;;1.30;1.20;;;16.40;50.90;;;;;;5051042;28;20768;-63
2023/03/16 12:26:38;;;;;;;2.05;1.50;;;16.40;50.90;;;;;;5052052;28;20213;-65
2023/03/16 12:29:15;;;;;;;2.03;1.67;;;16.40;50.80;;;;;;5051793;28;20257;-65
2023/03/16 12:31:46;;;;;;;2.00;1.20;;;16.40;50.90;;;;;;5051297;28;20175;-67
2023/03/16 12:34:12;;;;;;;1.70;1.50;;;16.40;50.80;;;;;;5051787;28;20604;-67
2023/03/16 12:36:56;;;;;;;2.35;1.35;;;16.40;50.70;;;;;;5052839;28;20263;-66
2023/03/16 12:39:52;;;;;;;1.70;1.50;;;16.40;50.70;;;;;;5051743;28;20183;-65
2023/03/16 12:42:42;;;;;;;3.85;1.55;;;16.40;50.60;;;;;;5052662;28;20218;-65
2023/03/16 12:45:22;;;;;;;1.50;1.33;;;16.50;50.70;;;;;;5051368;28;20272;-64
2023/03/16 12:48:03;;;;;;;2.13;1.30;;;16.50;50.60;;;;;;5052563;28;20600;-64
2023/03/16 12:50:28;;;;;;;1.42;1.30;;;16.60;50.40;;;;;;5051526;28;20556;-64
2023/03/16 12:52:54;;;;;;;1.73;1.25;;;16.60;50.40;;;;;;5051787;28;20717;-64
2023/03/16 12:55:45;;;;;;;1.58;1.48;;;16.60;50.20;;;;;;5052381;28;20257;-65